createdAt,value
2019-04-23T00:01:23.581Z,11.90
2019-04-23T00:03:38.961Z,11.90
2019-04-23T00:06:19.037Z,11.90
2019-04-23T00:08:55.856Z,12.00
2019-04-23T00:16:23.805Z,12.00
2019-04-23T00:18:47.899Z,12.10
2019-04-23T00:21:29.884Z,12.10
2019-04-23T00:29:11.742Z,12.10
2019-04-23T00:31:31.590Z,12.10
2019-04-23T00:34:01.056Z,12.10
2019-04-23T00:36:51.611Z,12.20
2019-04-23T00:39:06.393Z,12.10
2019-04-23T00:41:36.513Z,12.10
2019-04-23T00:44:34.948Z,12.10
2019-04-23T00:46:54.687Z,12.10
2019-04-23T00:49:32.638Z,12.10
2019-04-23T00:52:04.368Z,12.10
2019-04-23T00:54:32.693Z,12.10
2019-04-23T00:57:13.473Z,12.10
2019-04-23T00:59:42.761Z,12.00
2019-04-23T01:02:03.866Z,12.00
2019-04-23T01:04:33.659Z,11.90
2019-04-23T01:07:04.434Z,12.00
2019-04-23T01:09:48.919Z,11.90
2019-04-23T01:12:16.667Z,11.90
2019-04-23T01:14:38.558Z,11.80
2019-04-23T01:17:17.354Z,11.80
2019-04-23T01:20:12.527Z,11.80
2019-04-23T01:22:19.038Z,11.70
2019-04-23T01:25:04.437Z,11.70
2019-04-23T01:27:58.957Z,11.60
2019-04-23T01:30:41.099Z,11.60
2019-04-23T01:32:54.608Z,11.60
2019-04-23T01:35:41.689Z,11.60
2019-04-23T01:38:11.142Z,11.50
2019-04-23T01:40:35.148Z,11.50
2019-04-23T01:42:58.613Z,11.50
2019-04-23T01:45:27.079Z,11.40
2019-04-23T01:47:59.706Z,11.40
2019-04-23T01:50:37.589Z,11.40
2019-04-23T01:53:13.743Z,11.30
2019-04-23T01:55:33.064Z,11.40
2019-04-23T01:58:23.876Z,11.30
2019-04-23T02:03:09.331Z,11.30
2019-04-23T02:05:58.889Z,11.30
2019-04-23T02:08:07.512Z,11.20
2019-04-23T02:10:44.439Z,11.20
2019-04-23T02:13:16.403Z,11.20
2019-04-23T02:15:40.914Z,11.20
2019-04-23T02:18:14.915Z,11.20
2019-04-23T02:20:47.292Z,11.10
2019-04-23T02:23:26.592Z,11.10
2019-04-23T02:25:55.524Z,11.10
2019-04-23T02:28:28.934Z,11.10
2019-04-23T02:35:58.729Z,11.10
2019-04-23T02:43:25.988Z,11.00
2019-04-23T02:48:56.272Z,11.00
2019-04-23T02:51:04.453Z,11.00
2019-04-23T02:53:45.607Z,11.00
2019-04-23T02:56:16.747Z,10.90
2019-04-23T03:01:22.382Z,10.90
2019-04-23T03:03:56.384Z,10.80
2019-04-23T03:06:16.492Z,10.80
2019-04-23T03:11:20.373Z,10.70
2019-04-23T03:19:02.598Z,10.70
2019-04-23T03:21:46.938Z,10.70
2019-04-23T03:24:50.140Z,10.70
2019-04-23T03:27:22.910Z,10.70
2019-04-23T03:29:49.035Z,10.70
2019-04-23T03:37:23.286Z,10.60
2019-04-23T03:45:00.739Z,10.60
2019-04-23T03:52:34.213Z,10.60
2019-04-23T03:54:45.557Z,10.60
2019-04-23T04:04:44.713Z,10.50
2019-04-23T04:07:30.766Z,10.50
2019-04-23T04:14:57.706Z,10.50
2019-04-23T04:17:26.670Z,10.40
2019-04-23T04:20:02.807Z,10.40
2019-04-23T04:30:03.945Z,10.50
2019-04-23T04:32:54.596Z,10.40
2019-04-23T04:40:07.160Z,10.60
2019-04-23T04:42:27.441Z,10.60
2019-04-23T04:47:40.309Z,10.60
2019-04-23T04:50:02.011Z,10.70
2019-04-23T04:52:41.989Z,10.80
2019-04-23T04:55:03.059Z,10.80
2019-04-23T05:10:16.635Z,11.50
2019-04-23T05:12:36.253Z,11.70
2019-04-23T05:20:32.957Z,12.10
2019-04-23T05:23:09.183Z,12.50
2019-04-23T05:25:25.571Z,12.80
2019-04-23T05:30:33.040Z,13.40
2019-04-23T05:33:03.881Z,13.60
2019-04-23T05:35:47.809Z,13.60
2019-04-23T05:38:15.415Z,13.90
2019-04-23T05:40:42.827Z,14.20
2019-04-23T05:42:58.835Z,14.30
2019-04-23T05:45:38.212Z,14.50
2019-04-23T05:48:09.801Z,14.60
2019-04-23T05:50:42.516Z,14.60
2019-04-23T05:53:07.704Z,15.10
2019-04-23T05:55:43.023Z,15.10
2019-04-23T05:58:15.354Z,15.30
2019-04-23T06:00:39.752Z,15.40
2019-04-23T06:03:14.841Z,15.30
2019-04-23T06:05:43.014Z,15.40
2019-04-23T06:08:11.824Z,16.10
2019-04-23T06:10:39.587Z,16.60
2019-04-23T06:13:15.644Z,16.70
2019-04-23T06:15:46.770Z,16.50
2019-04-23T06:18:16.849Z,16.70
2019-04-23T06:20:51.771Z,16.40
2019-04-23T06:23:24.990Z,16.80
2019-04-23T06:25:57.183Z,17.20
2019-04-23T06:28:12.750Z,17.70
2019-04-23T06:30:54.410Z,17.00
2019-04-23T06:33:20.955Z,17.10
2019-04-23T06:35:50.470Z,17.40
2019-04-23T06:40:47.527Z,18.20
2019-04-23T06:43:47.550Z,18.30
2019-04-23T06:46:05.330Z,18.10
2019-04-23T06:48:35.144Z,18.70
2019-04-23T06:51:12.569Z,18.80
2019-04-23T06:53:37.386Z,19.00
2019-04-23T06:56:13.543Z,19.20
2019-04-23T06:58:37.023Z,19.00
2019-04-23T07:03:45.142Z,19.30
2019-04-23T07:09:05.215Z,19.70
2019-04-23T07:11:23.640Z,20.50
2019-04-23T07:13:57.144Z,21.00
2019-04-23T07:18:43.520Z,20.60
2019-04-23T07:23:55.544Z,20.90
2019-04-23T07:26:30.378Z,21.10
2019-04-23T07:28:50.043Z,21.20
2019-04-23T07:31:21.662Z,21.30
2019-04-23T07:33:53.064Z,20.90
2019-04-23T07:36:25.895Z,20.70
2019-04-23T07:42:03.597Z,21.70
2019-04-23T07:47:25.887Z,21.10
2019-04-23T07:50:09.463Z,20.90
2019-04-23T07:52:34.022Z,21.70
2019-04-23T07:57:51.092Z,21.20
2019-04-23T08:00:00.922Z,21.10
2019-04-23T08:02:43.766Z,21.50
2019-04-23T08:05:11.257Z,21.20
2019-04-23T08:07:41.078Z,21.10
2019-04-23T08:10:08.092Z,20.40
2019-04-23T08:15:13.309Z,20.20
2019-04-23T08:17:38.978Z,20.00
2019-04-23T08:20:30.812Z,19.90
2019-04-23T08:22:54.974Z,19.30
2019-04-23T08:25:45.527Z,19.30
2019-04-23T08:28:13.459Z,19.20
2019-04-23T08:30:49.989Z,19.10
2019-04-23T08:33:15.755Z,18.80
2019-04-23T08:35:48.683Z,18.70
2019-04-23T08:38:18.599Z,18.40
2019-04-23T08:40:55.640Z,18.30
2019-04-23T08:43:36.850Z,18.20
2019-04-23T08:46:07.235Z,18.00
2019-04-23T08:48:41.344Z,18.10
2019-04-23T08:51:24.131Z,18.00
2019-04-23T08:56:11.924Z,17.70
2019-04-23T08:58:41.933Z,17.70
2019-04-23T09:01:16.534Z,17.60
2019-04-23T09:03:49.331Z,17.40
2019-04-23T09:06:22.220Z,17.30
2019-04-23T09:08:49.561Z,17.40
2019-04-23T09:11:35.210Z,17.40
2019-04-23T09:13:56.332Z,17.40
2019-04-23T09:16:28.403Z,17.40
2019-04-23T09:18:52.608Z,17.40
2019-04-23T09:24:18.475Z,17.60
2019-04-23T09:26:53.611Z,17.50
2019-04-23T09:29:23.076Z,17.50
2019-04-23T09:32:22.329Z,17.50
2019-04-23T09:34:52.592Z,17.40
2019-04-23T09:37:34.675Z,17.40
2019-04-23T09:40:28.538Z,17.40
2019-04-23T09:43:00.566Z,17.50
2019-04-23T09:45:48.676Z,17.50
2019-04-23T09:48:09.092Z,17.50
2019-04-23T09:50:52.442Z,17.40
2019-04-23T09:53:24.969Z,17.50
2019-04-23T09:55:41.981Z,17.60
2019-04-23T09:58:16.780Z,17.60
2019-04-23T10:01:17.352Z,17.50
2019-04-23T10:03:16.633Z,17.50
2019-04-23T10:05:39.621Z,17.60
2019-04-23T10:08:10.415Z,17.60
2019-04-23T10:10:32.460Z,17.70
2019-04-23T10:13:02.232Z,17.70
2019-04-23T10:15:36.625Z,17.80
2019-04-23T10:18:02.499Z,17.80
2019-04-23T10:20:31.865Z,17.90
2019-04-23T10:23:04.217Z,17.80
2019-04-23T10:25:43.690Z,17.80
2019-04-23T10:28:15.206Z,17.80
2019-04-23T10:30:44.906Z,17.90
2019-04-23T10:33:13.968Z,18.00
2019-04-23T10:35:51.319Z,18.00
2019-04-23T10:38:16.389Z,18.10
2019-04-23T10:40:49.662Z,18.00
2019-04-23T10:43:15.149Z,18.10
2019-04-23T10:46:32.972Z,18.20
2019-04-23T10:56:59.858Z,18.20
2019-04-23T11:12:42.426Z,18.20
2019-04-23T11:15:28.836Z,18.20
2019-04-23T11:17:52.253Z,18.20
2019-04-23T11:25:33.016Z,18.20
2019-04-23T11:27:58.553Z,18.20
2019-04-23T11:30:31.986Z,18.30
2019-04-23T11:35:39.741Z,18.20
2019-04-23T11:41:22.897Z,18.20
2019-04-23T11:43:42.400Z,18.20
2019-04-23T11:53:58.056Z,18.30
2019-04-23T11:58:52.507Z,18.30
2019-04-23T12:01:46.504Z,18.30
2019-04-23T12:04:40.620Z,18.30
2019-04-23T12:07:26.286Z,18.30
2019-04-23T12:12:39.599Z,18.40
2019-04-23T12:17:49.111Z,18.50
2019-04-23T12:20:48.856Z,18.60
2019-04-23T12:23:42.032Z,18.60
2019-04-23T12:26:03.190Z,18.70
2019-04-23T12:28:39.342Z,18.70
2019-04-23T12:31:11.005Z,18.80
2019-04-23T12:33:43.999Z,18.90
2019-04-23T12:36:28.278Z,18.90
2019-04-23T12:38:56.823Z,19.00
2019-04-23T12:41:29.881Z,19.20
2019-04-23T12:43:57.865Z,19.30
2019-04-23T12:46:29.989Z,19.40
2019-04-23T12:51:34.600Z,19.30
2019-04-23T12:53:56.305Z,19.20
2019-04-23T12:56:41.596Z,19.20
2019-04-23T12:58:56.359Z,19.10
2019-04-23T13:01:35.928Z,19.20
2019-04-23T13:03:50.598Z,19.30
2019-04-23T13:06:28.031Z,19.30
2019-04-23T13:09:01.177Z,19.40
2019-04-23T13:11:36.770Z,19.40
2019-04-23T13:14:07.191Z,19.40
2019-04-23T13:16:44.569Z,19.40
2019-04-23T13:19:14.674Z,19.30
2019-04-23T13:21:51.699Z,19.20
2019-04-23T13:24:25.992Z,19.30
2019-04-23T13:26:56.043Z,19.30
2019-04-23T13:29:37.921Z,19.30
2019-04-23T13:31:59.217Z,19.30
2019-04-23T13:34:40.915Z,19.30
2019-04-23T13:37:05.212Z,19.40
2019-04-23T13:39:35.311Z,19.50
2019-04-23T13:42:09.126Z,19.60
2019-04-23T13:44:36.120Z,19.60
2019-04-23T13:47:13.690Z,19.70
2019-04-23T13:49:33.328Z,19.60
2019-04-23T13:52:37.738Z,19.40
2019-04-23T13:54:56.565Z,19.50
2019-04-23T13:57:32.617Z,19.40
2019-04-23T13:59:44.309Z,19.40
2019-04-23T14:02:17.032Z,19.40
2019-04-23T14:07:32.583Z,19.30
2019-04-23T14:10:04.766Z,19.30
2019-04-23T14:12:28.093Z,19.40
2019-04-23T14:17:59.597Z,19.40
2019-04-23T14:20:15.290Z,19.40
2019-04-23T14:23:00.505Z,19.30
2019-04-23T14:28:01.286Z,19.30
2019-04-23T14:30:37.213Z,19.30
2019-04-23T14:32:53.950Z,19.40
2019-04-23T14:35:25.489Z,19.30
2019-04-23T14:38:09.470Z,19.40
2019-04-23T14:40:29.758Z,19.40
2019-04-23T14:43:03.569Z,19.30
2019-04-23T14:48:08.669Z,19.30
2019-04-23T14:53:12.128Z,19.10
2019-04-23T14:55:53.018Z,19.10
2019-04-23T14:58:18.085Z,19.10
2019-04-23T15:00:59.615Z,19.00
2019-04-23T15:03:19.818Z,19.00
2019-04-23T15:05:45.102Z,19.00
2019-04-23T15:08:15.009Z,19.00
2019-04-23T15:10:55.931Z,18.90
2019-04-23T15:13:21.208Z,18.90
2019-04-23T15:15:45.965Z,18.90
2019-04-23T15:18:28.458Z,18.90
2019-04-23T15:21:19.224Z,18.90
2019-04-23T15:26:50.909Z,19.00
2019-04-23T15:28:10.156Z,18.90
2019-04-23T15:31:11.007Z,18.90
2019-04-23T15:36:24.096Z,18.90
2019-04-23T15:38:46.811Z,18.90
2019-04-23T15:41:10.277Z,18.80
2019-04-23T15:43:47.332Z,18.80
2019-04-23T15:46:20.312Z,18.80
2019-04-23T15:48:42.471Z,18.70
2019-04-23T15:51:26.454Z,18.70
2019-04-23T15:53:44.472Z,18.70
2019-04-23T15:56:18.508Z,18.60
2019-04-23T15:59:04.331Z,18.60
2019-04-23T16:01:29.340Z,18.50
2019-04-23T16:03:24.462Z,18.50
2019-04-23T16:05:53.090Z,18.50
2019-04-23T16:08:59.187Z,18.50
2019-04-23T16:11:33.514Z,18.50
2019-04-23T16:16:31.601Z,18.40
2019-04-23T16:19:22.054Z,18.40
2019-04-23T16:31:49.570Z,18.30
2019-04-23T16:34:29.144Z,18.30
2019-04-23T16:39:28.803Z,18.30
2019-04-23T16:42:08.539Z,18.20
2019-04-23T16:44:44.894Z,18.20
2019-04-23T16:47:14.474Z,18.20
2019-04-23T16:49:42.173Z,18.10
2019-04-23T16:52:07.907Z,18.10
2019-04-23T16:54:53.852Z,18.00
2019-04-23T16:57:24.460Z,18.00
2019-04-23T16:59:49.181Z,17.90
2019-04-23T17:02:14.785Z,17.90
2019-04-23T17:04:47.727Z,17.90
2019-04-23T17:07:06.935Z,17.90
2019-04-23T17:09:55.633Z,17.90
2019-04-23T17:12:13.473Z,17.90
2019-04-23T17:14:41.391Z,17.90
2019-04-23T17:17:14.861Z,17.80
2019-04-23T17:19:48.482Z,17.80
2019-04-23T17:22:17.721Z,17.80
2019-04-23T17:24:54.126Z,17.80
2019-04-23T17:29:55.648Z,17.70
2019-04-23T17:32:25.354Z,17.70
2019-04-23T17:35:15.882Z,17.60
2019-04-23T17:42:51.639Z,17.50
2019-04-23T17:48:08.777Z,17.40
2019-04-23T17:50:50.115Z,17.40
2019-04-23T17:53:22.321Z,17.40
2019-04-23T17:55:57.204Z,17.40
2019-04-23T17:58:26.577Z,17.30
2019-04-23T18:01:05.538Z,17.30
2019-04-23T18:03:28.198Z,17.20
2019-04-23T18:06:04.102Z,17.20
2019-04-23T18:08:27.208Z,17.20
2019-04-23T18:11:05.496Z,17.10
2019-04-23T18:13:29.870Z,17.10
2019-04-23T18:16:01.863Z,17.00
2019-04-23T18:18:38.178Z,17.00
2019-04-23T18:24:23.391Z,16.90
2019-04-23T18:27:12.001Z,16.90
2019-04-23T18:29:34.369Z,16.80
2019-04-23T18:32:25.732Z,16.80
2019-04-23T18:35:08.713Z,16.80
2019-04-23T18:37:24.323Z,16.70
2019-04-23T18:39:48.566Z,16.60
2019-04-23T18:42:29.428Z,16.60
2019-04-23T18:44:48.465Z,16.60
2019-04-23T18:47:33.596Z,16.50
2019-04-23T18:55:04.463Z,16.30
2019-04-23T18:57:18.293Z,16.40
2019-04-23T18:59:57.111Z,16.30
2019-04-23T19:02:44.254Z,16.20
2019-04-23T19:05:28.978Z,16.20
2019-04-23T19:08:08.676Z,16.10
2019-04-23T19:10:50.894Z,16.00
2019-04-23T19:13:27.768Z,16.00
2019-04-23T19:16:07.384Z,15.90
2019-04-23T19:18:30.498Z,15.90
2019-04-23T19:23:52.801Z,15.80
2019-04-23T19:26:26.780Z,15.70
2019-04-23T19:28:51.816Z,15.80
2019-04-23T19:31:40.096Z,15.70
2019-04-23T19:34:21.396Z,15.60
2019-04-23T19:39:17.609Z,15.50
2019-04-23T19:49:21.432Z,15.40
2019-04-23T19:51:49.391Z,15.40
2019-04-23T19:56:51.283Z,15.30
2019-04-23T19:59:41.025Z,15.20
2019-04-23T20:02:00.459Z,15.20
2019-04-23T20:04:37.437Z,15.20
2019-04-23T20:07:12.607Z,15.10
2019-04-23T20:09:46.161Z,15.10
2019-04-23T20:12:00.968Z,15.10
2019-04-23T20:14:43.638Z,15.00
2019-04-23T20:17:37.726Z,15.00
2019-04-23T20:19:56.757Z,14.90
2019-04-23T20:22:37.344Z,14.90
2019-04-23T20:25:18.866Z,14.90
2019-04-23T20:27:26.474Z,14.90
2019-04-23T20:30:36.112Z,14.80
2019-04-23T20:35:33.498Z,14.80
2019-04-23T20:40:40.346Z,14.70
2019-04-23T20:43:05.744Z,14.60
2019-04-23T20:45:48.183Z,14.60
2019-04-23T20:48:06.957Z,14.60
2019-04-23T20:50:39.431Z,14.50
2019-04-23T20:53:03.335Z,14.50
2019-04-23T20:55:58.673Z,14.40
2019-04-23T20:58:28.765Z,14.40
2019-04-23T21:01:09.544Z,14.40
2019-04-23T21:03:52.038Z,14.40
2019-04-23T21:06:07.211Z,14.30
2019-04-23T21:08:52.376Z,14.30
2019-04-23T21:11:03.075Z,14.30
2019-04-23T21:13:47.386Z,14.20
2019-04-23T21:16:08.536Z,14.20
2019-04-23T21:18:48.247Z,14.20
2019-04-23T21:21:09.542Z,14.10
2019-04-23T21:23:38.683Z,14.10
2019-04-23T21:26:01.859Z,14.10
2019-04-23T21:31:11.572Z,14.00
2019-04-23T21:34:05.888Z,14.00
2019-04-23T21:36:40.152Z,13.90
2019-04-23T21:39:38.524Z,13.90
2019-04-23T21:44:28.818Z,13.80
2019-04-23T21:47:03.560Z,13.80
2019-04-23T21:49:45.791Z,13.80
2019-04-23T21:54:38.036Z,13.70
2019-04-23T21:56:58.708Z,13.70
2019-04-23T21:59:50.472Z,13.70
2019-04-23T22:02:23.650Z,13.70
2019-04-23T22:04:52.515Z,13.60
2019-04-23T22:07:19.427Z,13.60
2019-04-23T22:09:51.831Z,13.50
2019-04-23T22:17:24.993Z,13.50
2019-04-23T22:20:05.546Z,13.60
2019-04-23T22:22:39.459Z,13.50
2019-04-23T22:24:54.582Z,13.50
2019-04-23T22:27:16.772Z,13.50
2019-04-23T22:29:55.364Z,13.50
2019-04-23T22:32:30.803Z,13.50
2019-04-23T22:35:00.808Z,13.40
2019-04-23T22:40:02.603Z,13.30
2019-04-23T22:43:01.186Z,13.40
2019-04-23T22:45:05.335Z,13.30
2019-04-23T22:47:34.563Z,13.30
2019-04-23T22:52:33.872Z,13.30
2019-04-23T22:57:56.445Z,13.20
2019-04-23T23:05:37.415Z,13.20
2019-04-23T23:08:10.803Z,13.20
2019-04-23T23:10:31.799Z,13.20
2019-04-23T23:13:05.837Z,13.10
2019-04-23T23:15:22.728Z,13.20
2019-04-23T23:23:05.908Z,13.20
2019-04-23T23:25:31.468Z,13.20
2019-04-23T23:28:07.961Z,13.20
2019-04-23T23:30:26.704Z,13.20
2019-04-23T23:33:03.695Z,13.20
2019-04-23T23:35:29.564Z,13.20
2019-04-23T23:38:08.317Z,13.20
2019-04-23T23:43:16.059Z,13.20
2019-04-23T23:45:35.410Z,13.20
2019-04-23T23:50:45.854Z,13.20
2019-04-23T23:53:27.740Z,13.20
2019-04-23T23:55:57.951Z,13.20
